Terminal Aerodrome Forecast
Issued by NWS

Home | Current Version | Previous Version | Text Only | Print | Product List | Glossary On
Versions: 1 2 3 4 5 6 7 8 9 10 11 12 13 14 15
000
FTUS44 KMAF 201100
TAFHOB
TAF
KHOB 201134Z 2012/2112 12007KT P6SM SCT030 BKN130 BKN250
      TEMPO 2012/2016 BKN020
     FM201600 12007KT P6SM SCT060 BKN100 PROB30 2021/2103 6SM -TSRA
      BKN050CB=

USA.gov is the U.S. government's official web portal to all federal, state and local government web resources and services.